Time;durP1;ratioP1;P1;durP2;ratioP2;P2;SDS_P1;SDS_P2;PMS_P1;PMS_P2;Temp;Humidity;BMP_temperature;BMP_pressure;BME280_temperature;BME280_humidity;BME280_pressure;Samples;Min_cycle;Max_cycle;Signal;HPM_P1;HPM_P2
2022/07/29 00:00:28;;;;;;;1.67;0.90;;;;;;;26.07;41.10;101824.25;5032151;28;20043;-69
2022/07/29 00:02:53;;;;;;;1.20;0.70;;;;;;;26.05;41.09;101824.28;5064827;28;20020;-69
2022/07/29 00:05:20;;;;;;;2.55;0.80;;;;;;;26.05;41.00;101816.28;5070142;28;20032;-69
2022/07/29 00:07:45;;;;;;;1.70;0.90;;;;;;;26.05;41.03;101815.41;5069734;28;20542;-68
2022/07/29 00:10:11;;;;;;;2.22;0.90;;;;;;;26.06;40.91;101814.47;5069179;28;20135;-69
2022/07/29 00:12:36;;;;;;;2.20;0.93;;;;;;;26.06;41.15;101809.13;5068549;28;20505;-69
2022/07/29 00:15:02;;;;;;;1.67;0.90;;;;;;;26.05;41.02;101807.38;5068491;28;20032;-69
2022/07/29 00:17:27;;;;;;;1.33;0.80;;;;;;;26.04;41.12;101800.31;5068137;28;20016;-68
2022/07/29 00:19:53;;;;;;;1.70;0.90;;;;;;;26.03;41.26;101799.44;5067719;28;20103;-69
2022/07/29 00:22:19;;;;;;;1.85;0.88;;;;;;;26.03;41.16;101798.56;5069242;28;20468;-69
2022/07/29 00:24:44;;;;;;;2.00;0.88;;;;;;;26.03;40.92;101804.78;5069398;28;20414;-69
2022/07/29 00:27:10;;;;;;;1.20;0.77;;;;;;;26.03;41.06;101796.78;5059720;28;20044;-69
2022/07/29 00:29:35;;;;;;;2.28;0.85;;;;;;;26.03;41.10;101790.56;5068515;28;20043;-69
2022/07/29 00:32:01;;;;;;;3.17;0.93;;;;;;;26.02;41.05;101791.47;5067874;28;20479;-69
2022/07/29 00:37:10;;;;;;;1.65;0.73;;;;;;;26.01;41.34;101782.59;5049561;28;20039;-69
2022/07/29 00:39:36;;;;;;;1.90;0.90;;;;;;;26.01;41.13;101781.72;5040564;28;20040;-69
2022/07/29 00:42:04;;;;;;;2.65;0.90;;;;;;;26.00;40.99;101775.50;5069391;28;20024;-69
2022/07/29 00:44:30;;;;;;;1.63;0.90;;;;;;;25.99;41.01;101779.09;5069239;28;20537;-69
2022/07/29 00:46:55;;;;;;;1.10;0.75;;;;;;;25.99;41.09;101776.41;5062930;28;20041;-69
2022/07/29 00:49:20;;;;;;;1.35;0.80;;;;;;;26.00;41.22;101774.63;5031572;28;20701;-69
2022/07/29 00:51:48;;;;;;;1.63;0.85;;;;;;;26.00;41.28;101771.94;5067394;28;20537;-69
2022/07/29 00:54:14;;;;;;;1.25;0.70;;;;;;;25.98;41.19;101764.00;5065365;28;20035;-69
2022/07/29 00:56:39;;;;;;;1.45;0.75;;;;;;;25.97;41.21;101756.03;5048990;28;20650;-68
2022/07/29 00:59:04;;;;;;;1.40;0.80;;;;;;;25.98;41.18;101756.00;5049178;28;20116;-68
2022/07/29 01:01:30;;;;;;;1.67;0.80;;;;;;;25.96;41.33;101764.97;5049053;28;20029;-69
2022/07/29 01:03:55;;;;;;;1.70;0.80;;;;;;;25.97;41.22;101756.03;5048677;28;20039;-68
2022/07/29 01:06:21;;;;;;;1.17;0.80;;;;;;;25.96;41.07;101752.50;5047840;28;20029;-69
2022/07/29 01:08:49;;;;;;;1.52;0.80;;;;;;;25.97;41.26;101756.03;5048817;28;20056;-68
2022/07/29 01:11:16;;;;;;;1.38;0.80;;;;;;;25.96;41.33;101741.81;5066145;28;20111;-69
2022/07/29 01:13:45;;;;;;;0.82;0.68;;;;;;;25.95;41.42;101740.06;5067775;28;20141;-68
2022/07/29 01:16:17;;;;;;;1.65;0.80;;;;;;;25.95;41.21;101734.72;5067583;28;20081;-69
2022/07/29 01:18:48;;;;;;;1.38;0.85;;;;;;;25.93;41.22;101738.34;5068869;28;20036;-69
2022/07/29 01:21:43;;;;;;;2.13;0.80;;;;;;;25.93;41.29;101736.56;5067936;28;20024;-69
2022/07/29 01:24:20;;;;;;;0.80;0.75;;;;;;;25.94;41.23;101734.75;5068781;28;20090;-69
2022/07/29 01:26:58;;;;;;;1.67;0.80;;;;;;;25.94;41.35;101724.94;5067151;28;20090;-69
2022/07/29 01:29:36;;;;;;;1.52;0.82;;;;;;;25.92;41.22;101726.84;5065746;28;20543;-69
2022/07/29 01:32:10;;;;;;;1.85;0.77;;;;;;;25.92;41.16;101716.16;5049378;28;20040;-68
2022/07/29 01:34:47;;;;;;;1.45;0.90;;;;;;;25.91;41.07;101714.41;5060322;28;20064;-68
2022/07/29 01:37:17;;;;;;;1.23;0.70;;;;;;;25.91;41.31;101705.50;5068754;28;20112;-68
2022/07/29 01:39:47;;;;;;;1.10;0.80;;;;;;;25.91;41.33;101709.06;5054120;28;20029;-68
2022/07/29 01:42:36;;;;;;;2.08;0.80;;;;;;;25.89;41.21;101705.56;5051590;28;20060;-69
2022/07/29 01:45:18;;;;;;;1.00;0.73;;;;;;;25.92;41.12;101701.91;5052113;28;20040;-68
2022/07/29 01:47:53;;;;;;;1.13;0.70;;;;;;;25.91;41.18;101700.16;5058203;28;20027;-69
2022/07/29 01:50:23;;;;;;;1.67;0.85;;;;;;;25.92;41.13;101707.25;5052678;28;20041;-69
2022/07/29 01:52:59;;;;;;;1.35;0.80;;;;;;;25.90;41.19;101693.06;5052011;28;20029;-69
2022/07/29 01:55:31;;;;;;;1.52;1.00;;;;;;;25.90;41.46;101687.72;5051943;28;20608;-69
2022/07/29 01:57:58;;;;;;;2.35;0.90;;;;;;;25.88;41.14;101682.44;5051659;28;20036;-68
2022/07/29 02:00:25;;;;;;;0.93;0.80;;;;;;;25.91;41.22;101689.47;5034319;28;20035;-69
2022/07/29 02:02:53;;;;;;;2.35;0.80;;;;;;;25.85;41.26;101683.44;5051698;28;20036;-69
2022/07/29 02:05:21;;;;;;;1.10;0.68;;;;;;;25.85;41.19;101680.75;5051687;28;20045;-69
2022/07/29 02:07:48;;;;;;;1.63;0.80;;;;;;;25.87;41.33;101678.00;5051484;28;20391;-69
2022/07/29 02:10:17;;;;;;;1.25;0.90;;;;;;;25.88;41.17;101681.56;5051648;28;20028;-69
2022/07/29 02:12:43;;;;;;;2.13;0.73;;;;;;;25.89;41.37;101672.63;5052401;28;20029;-69
2022/07/29 02:15:11;;;;;;;1.35;0.80;;;;;;;25.88;41.44;101673.53;5071738;28;20032;-69
2022/07/29 02:17:45;;;;;;;1.45;0.80;;;;;;;25.86;41.22;101679.81;5071616;28;20517;-69
2022/07/29 02:20:11;;;;;;;1.23;0.90;;;;;;;25.88;41.32;101670.88;5070994;28;20142;-69
2022/07/29 02:22:39;;;;;;;0.90;0.80;;;;;;;25.86;41.51;101666.44;5059041;28;20399;-69
2022/07/29 02:25:07;;;;;;;2.45;0.90;;;;;;;25.86;41.34;101676.25;5051624;28;20052;-69
2022/07/29 02:27:34;;;;;;;1.70;0.80;;;;;;;25.85;41.35;101661.19;5051480;28;20299;-69
2022/07/29 02:30:02;;;;;;;1.10;0.73;;;;;;;25.84;41.32;101660.31;5051017;28;20154;-69
2022/07/29 02:32:29;;;;;;;1.58;0.73;;;;;;;25.83;41.51;101661.25;5050197;28;20028;-69
2022/07/29 02:34:58;;;;;;;1.00;0.80;;;;;;;25.82;41.39;101656.81;5051362;28;20051;-69
2022/07/29 02:37:25;;;;;;;1.67;0.80;;;;;;;25.84;41.20;101662.13;5061060;28;20577;-69
2022/07/29 02:39:53;;;;;;;1.17;0.80;;;;;;;25.84;41.28;101659.44;5071075;28;20039;-68
2022/07/29 02:42:22;;;;;;;2.38;0.77;;;;;;;25.82;40.98;101662.16;5071662;28;20142;-69
2022/07/29 02:44:47;;;;;;;0.82;0.70;;;;;;;25.82;41.35;101656.81;5070911;28;20044;-69
2022/07/29 02:47:36;;;;;;;0.80;0.75;;;;;;;25.80;41.20;101661.34;5069575;28;20555;-69
2022/07/29 02:50:12;;;;;;;1.42;0.82;;;;;;;25.82;41.32;101655.94;5071439;28;20066;-68
2022/07/29 02:52:41;;;;;;;1.67;0.75;;;;;;;25.79;41.43;101651.59;5071300;28;20439;-68
2022/07/29 02:55:31;;;;;;;1.20;0.80;;;;;;;25.80;41.37;101647.97;5061126;28;20375;-69
2022/07/29 02:58:22;;;;;;;0.90;0.80;;;;;;;25.83;41.19;101655.91;5051013;28;20032;-69
2022/07/29 03:00:51;;;;;;;1.10;0.90;;;;;;;25.84;41.21;101660.31;5050378;28;20090;-68
2022/07/29 03:03:18;;;;;;;1.23;0.80;;;;;;;25.83;41.20;101652.34;5050969;28;20108;-69
2022/07/29 03:05:43;;;;;;;1.10;0.82;;;;;;;25.85;41.22;101653.19;5057492;28;20021;-68
2022/07/29 03:08:10;;;;;;;1.35;0.70;;;;;;;25.85;41.10;101655.84;5050841;28;20039;-69
2022/07/29 03:10:38;;;;;;;0.95;0.80;;;;;;;25.82;41.16;101654.16;5050448;28;20035;-68
2022/07/29 03:13:05;;;;;;;1.85;0.90;;;;;;;25.81;41.52;101652.41;5050670;28;20134;-68
2022/07/29 03:15:31;;;;;;;2.65;0.75;;;;;;;25.82;41.22;101651.47;5016582;28;20394;-68
2022/07/29 03:17:58;;;;;;;1.67;0.80;;;;;;;25.80;41.56;101647.09;5050298;28;20040;-68
2022/07/29 03:20:25;;;;;;;1.42;0.80;;;;;;;25.80;41.59;101647.09;5050043;28;20029;-68
2022/07/29 03:22:50;;;;;;;1.75;0.90;;;;;;;25.80;41.30;101647.97;5050252;28;20029;-68
2022/07/29 03:25:18;;;;;;;1.80;0.70;;;;;;;25.78;41.19;101646.31;5066484;28;20035;-68
2022/07/29 03:27:44;;;;;;;1.00;0.80;;;;;;;25.79;41.30;101653.41;5055907;28;20142;-68
2022/07/29 03:30:11;;;;;;;1.50;0.90;;;;;;;25.82;41.16;101656.81;5049990;28;20041;-68
2022/07/29 03:32:36;;;;;;;4.00;0.80;;;;;;;25.80;41.40;101650.66;5048622;28;20078;-68
2022/07/29 03:35:03;;;;;;;0.85;0.70;;;;;;;25.79;41.25;101650.72;5050280;28;20032;-69
2022/07/29 03:37:30;;;;;;;1.42;0.80;;;;;;;25.78;41.32;101649.00;5049154;28;20029;-68
2022/07/29 03:39:56;;;;;;;1.95;0.82;;;;;;;25.76;41.43;101646.38;5048885;28;20051;-68
2022/07/29 03:42:25;;;;;;;1.30;0.80;;;;;;;25.77;41.19;101648.13;5049753;28;20088;-68
2022/07/29 03:44:52;;;;;;;1.10;0.88;;;;;;;25.76;41.36;101646.38;5049332;28;20060;-68
2022/07/29 03:47:22;;;;;;;0.98;0.80;;;;;;;25.75;41.64;101643.75;5050039;28;20376;-68
2022/07/29 03:49:51;;;;;;;8.35;0.90;;;;;;;25.75;41.45;101646.41;5049061;28;20029;-68
2022/07/29 03:52:17;;;;;;;1.10;0.70;;;;;;;25.76;41.48;101648.16;5049644;28;20037;-68
2022/07/29 03:54:42;;;;;;;1.10;0.70;;;;;;;25.75;41.38;101644.63;5049321;28;20119;-69
2022/07/29 03:57:10;;;;;;;2.00;0.80;;;;;;;25.75;41.33;101641.06;5049590;28;20120;-68
2022/07/29 03:59:37;;;;;;;1.63;0.70;;;;;;;25.74;41.53;101650.00;5048319;28;20016;-68
2022/07/29 04:02:05;;;;;;;0.70;0.70;;;;;;;25.74;41.50;101645.53;5065728;28;20037;-68
2022/07/29 04:04:34;;;;;;;1.02;0.80;;;;;;;25.73;41.62;101645.63;5069193;28;20486;-69
2022/07/29 04:06:59;;;;;;;1.10;0.80;;;;;;;25.73;41.46;101651.84;5069217;28;20020;-68
2022/07/29 04:09:25;;;;;;;1.20;0.80;;;;;;;25.73;41.52;101646.50;5067798;28;20043;-68
2022/07/29 04:11:50;;;;;;;1.58;0.77;;;;;;;25.73;41.50;101646.50;5069315;28;20024;-68
2022/07/29 04:14:15;;;;;;;1.45;0.80;;;;;;;25.73;41.39;101648.28;5068859;28;20036;-69
2022/07/29 04:16:41;;;;;;;0.93;0.70;;;;;;;25.71;41.57;101636.78;5069337;28;20017;-68
2022/07/29 04:19:06;;;;;;;1.20;0.80;;;;;;;25.71;41.26;101637.66;5070216;28;20052;-68
2022/07/29 04:21:37;;;;;;;1.05;0.70;;;;;;;25.70;41.46;101622.56;5069082;28;20028;-68
2022/07/29 04:24:02;;;;;;;2.28;0.80;;;;;;;25.69;41.62;101628.81;5069079;28;20470;-68
2022/07/29 04:26:28;;;;;;;1.30;0.80;;;;;;;25.69;41.56;101625.28;5069245;28;20030;-69
2022/07/29 04:28:53;;;;;;;1.10;0.70;;;;;;;25.69;41.78;101635.97;5067671;28;20038;-68
2022/07/29 04:31:18;;;;;;;0.80;0.70;;;;;;;25.69;41.47;101636.84;5069143;28;20047;-68
2022/07/29 04:33:44;;;;;;;0.90;0.73;;;;;;;25.69;41.48;101633.28;5067627;28;20115;-68
2022/07/29 04:36:10;;;;;;;1.42;0.60;;;;;;;25.68;41.49;101637.75;5056192;28;20111;-69
2022/07/29 04:38:36;;;;;;;0.95;0.80;;;;;;;25.68;41.81;101635.09;5047611;28;20029;-69
2022/07/29 04:41:02;;;;;;;0.98;0.73;;;;;;;25.69;41.43;101627.94;5047960;28;20109;-68
2022/07/29 04:43:27;;;;;;;0.95;0.80;;;;;;;25.68;41.48;101636.88;5049100;28;20119;-68
2022/07/29 04:45:52;;;;;;;1.20;0.73;;;;;;;25.67;41.48;101636.03;5049171;28;20047;-68
2022/07/29 04:48:18;;;;;;;1.25;0.80;;;;;;;25.69;41.58;101646.63;5048230;28;20087;-68
2022/07/29 04:50:44;;;;;;;1.58;0.77;;;;;;;25.69;41.60;101644.84;5031174;28;20509;-68
2022/07/29 04:53:09;;;;;;;1.90;0.80;;;;;;;25.71;41.40;101644.78;5053676;28;20044;-68
2022/07/29 04:55:36;;;;;;;1.67;0.80;;;;;;;25.69;41.50;101643.97;5055477;28;20017;-68
2022/07/29 04:58:02;;;;;;;1.30;0.80;;;;;;;25.69;41.47;101639.50;5067078;28;20025;-68
2022/07/29 05:00:27;;;;;;;1.00;0.80;;;;;;;25.69;41.42;101635.97;5065884;28;20522;-68
2022/07/29 05:02:53;;;;;;;1.17;0.80;;;;;;;25.66;41.62;101630.75;5047613;28;20503;-68
2022/07/29 05:05:18;;;;;;;1.08;0.80;;;;;;;25.69;41.29;101631.50;5047569;28;20036;-68
2022/07/29 05:07:44;;;;;;;0.82;0.63;;;;;;;25.69;41.45;101631.50;5065764;28;20432;-68
2022/07/29 05:10:09;;;;;;;0.90;0.70;;;;;;;25.67;41.27;101630.69;5067475;28;20060;-68
2022/07/29 05:12:35;;;;;;;0.88;0.70;;;;;;;25.69;41.36;101623.47;5068596;28;20029;-68
2022/07/29 05:15:00;;;;;;;1.27;0.80;;;;;;;25.67;41.42;101629.81;5055603;28;20059;-68
2022/07/29 05:17:26;;;;;;;1.33;0.80;;;;;;;25.66;41.55;101625.41;5052304;28;20054;-68
2022/07/29 05:19:52;;;;;;;1.00;0.70;;;;;;;25.67;41.25;101617.34;5052834;28;20051;-68
2022/07/29 05:22:18;;;;;;;1.48;0.80;;;;;;;25.66;41.40;101620.94;5051072;28;20064;-68
2022/07/29 05:24:44;;;;;;;1.08;0.80;;;;;;;25.67;41.34;101624.47;5052637;28;20032;-68
2022/07/29 05:27:09;;;;;;;1.00;0.88;;;;;;;25.67;41.62;101624.47;5062317;28;20368;-68
2022/07/29 05:29:35;;;;;;;0.80;0.70;;;;;;;25.66;41.43;101628.94;5060040;28;20029;-68
2022/07/29 05:32:00;;;;;;;1.02;0.80;;;;;;;25.68;41.38;101631.53;5052475;28;20029;-68
2022/07/29 05:34:26;;;;;;;1.20;0.80;;;;;;;25.67;41.50;101638.72;5061672;28;20480;-68
2022/07/29 05:36:51;;;;;;;1.00;0.90;;;;;;;25.65;41.37;101634.34;5051706;28;20446;-68
2022/07/29 05:39:16;;;;;;;1.73;0.70;;;;;;;25.67;41.47;101632.50;5052305;28;20033;-68
2022/07/29 05:41:42;;;;;;;1.10;0.70;;;;;;;25.67;41.53;101635.16;5057066;28;20048;-68
2022/07/29 05:44:07;;;;;;;1.08;0.80;;;;;;;25.67;41.53;101637.84;5063624;28;20135;-68
2022/07/29 05:46:32;;;;;;;1.20;0.80;;;;;;;25.65;41.39;101639.69;5051666;28;20021;-68
2022/07/29 05:48:58;;;;;;;1.25;0.80;;;;;;;25.68;41.24;101643.09;5062527;28;20039;-68
2022/07/29 05:51:23;;;;;;;1.23;0.70;;;;;;;25.66;41.36;101652.13;5072123;28;20058;-68
2022/07/29 05:53:48;;;;;;;0.98;0.73;;;;;;;25.68;41.31;101652.91;5071857;28;20035;-68
2022/07/29 05:56:14;;;;;;;0.93;0.70;;;;;;;25.68;41.36;101666.25;5053004;28;20044;-68
2022/07/29 05:58:39;;;;;;;0.93;0.80;;;;;;;25.68;41.40;101660.91;5051508;28;20070;-68
2022/07/29 06:01:05;;;;;;;1.35;0.73;;;;;;;25.67;41.43;101657.41;5052084;28;20060;-69
2022/07/29 06:03:30;;;;;;;0.90;0.80;;;;;;;25.67;41.36;101657.41;5070571;28;20115;-68
2022/07/29 06:05:56;;;;;;;0.80;0.75;;;;;;;25.67;41.57;101664.53;5070443;28;20107;-68
2022/07/29 06:08:21;;;;;;;0.85;0.70;;;;;;;25.70;41.25;101662.63;5071387;28;20060;-68
2022/07/29 06:10:47;;;;;;;1.20;0.80;;;;;;;25.72;41.21;101658.09;5071361;28;20111;-68
2022/07/29 06:13:12;;;;;;;1.23;0.85;;;;;;;25.72;41.24;101655.44;5071279;28;20021;-68
2022/07/29 06:15:38;;;;;;;0.82;0.73;;;;;;;25.71;41.29;101653.69;5067580;28;20074;-68
2022/07/29 06:18:03;;;;;;;0.85;0.70;;;;;;;25.73;41.44;101651.84;5071776;28;20035;-68
2022/07/29 06:20:30;;;;;;;0.73;0.70;;;;;;;25.74;41.43;101658.91;5071554;28;20024;-68
2022/07/29 06:22:56;;;;;;;1.35;0.80;;;;;;;25.71;41.33;101642.13;5070562;28;20040;-68
2022/07/29 06:25:22;;;;;;;1.05;0.80;;;;;;;25.72;41.20;101655.44;5071634;28;20027;-68
2022/07/29 06:27:47;;;;;;;1.13;0.70;;;;;;;25.73;41.34;101659.84;5071385;28;20036;-68
2022/07/29 06:30:13;;;;;;;1.92;0.80;;;;;;;25.73;41.34;101650.97;5053318;28;20028;-68
2022/07/29 06:32:39;;;;;;;1.77;0.90;;;;;;;25.75;41.27;101649.09;5070225;28;20509;-69
2022/07/29 06:35:04;;;;;;;2.65;0.90;;;;;;;25.74;41.07;101648.22;5070703;28;20036;-71
2022/07/29 06:37:30;;;;;;;1.98;0.88;;;;;;;25.75;41.36;101657.97;5069963;28;20754;-69
2022/07/29 06:42:42;;;;;;;;;;;;;;;25.84;41.64;101662.13;5052468;28;20090;-68
2022/07/29 06:45:07;;;;;;;2.08;1.00;;;;;;;25.83;41.73;101658.56;5049776;28;20329;-69
2022/07/29 06:47:32;;;;;;;1.80;0.80;;;;;;;25.88;42.02;101666.41;5062693;28;20029;-69
2022/07/29 06:49:58;;;;;;;2.58;0.90;;;;;;;25.86;41.81;101666.44;5050975;28;20051;-68
2022/07/29 06:52:25;;;;;;;2.15;0.90;;;;;;;25.92;41.71;101662.72;5055010;28;20078;-65
2022/07/29 06:54:50;;;;;;;3.17;0.73;;;;;;;25.90;42.28;101661.88;5046516;28;20387;-65
2022/07/29 06:57:15;;;;;;;4.25;0.80;;;;;;;25.94;41.98;101657.28;5059604;28;20020;-63
2022/07/29 06:59:41;;;;;;;4.00;0.93;;;;;;;25.93;41.94;101659.06;5054520;28;20044;-64
2022/07/29 07:02:06;;;;;;;4.15;0.98;;;;;;;25.97;41.92;101666.06;5055942;28;20075;-66
2022/07/29 07:04:33;;;;;;;1.60;0.80;;;;;;;25.92;42.24;101667.19;5057528;28;20699;-63
2022/07/29 07:06:59;;;;;;;1.58;1.00;;;;;;;25.85;42.10;101670.06;5056231;28;20514;-63
2022/07/29 07:09:24;;;;;;;4.35;0.90;;;;;;;25.80;42.46;101680.03;5057182;28;20027;-64
2022/07/29 07:11:50;;;;;;;3.20;1.00;;;;;;;25.94;42.22;101686.66;5062011;28;20451;-63
2022/07/29 07:14:15;;;;;;;4.18;1.10;;;;;;;25.97;41.99;101689.25;5060013;28;20116;-63
2022/07/29 07:16:40;;;;;;;3.38;1.20;;;;;;;25.94;41.73;101686.66;5048619;28;20128;-63
2022/07/29 07:19:06;;;;;;;8.85;1.23;;;;;;;25.90;41.87;101685.94;5056066;28;20705;-64
2022/07/29 07:21:32;;;;;;;4.47;1.20;;;;;;;25.97;41.74;101686.56;5063140;28;20108;-64
2022/07/29 07:23:59;;;;;;;4.05;1.17;;;;;;;25.98;41.71;101691.00;5061718;28;20064;-63
2022/07/29 07:26:25;;;;;;;4.53;1.30;;;;;;;25.96;41.56;101692.84;5065248;28;20029;-65
2022/07/29 07:28:50;;;;;;;4.82;1.10;;;;;;;25.94;41.27;101697.34;5058966;28;20036;-64
2022/07/29 07:31:16;;;;;;;5.15;1.30;;;;;;;25.92;41.04;101697.44;5068617;28;20027;-64
2022/07/29 07:33:41;;;;;;;7.63;1.38;;;;;;;25.90;40.78;101699.28;5066868;28;20622;-64
2022/07/29 07:36:07;;;;;;;3.25;1.20;;;;;;;25.85;40.96;101695.91;5051749;28;20689;-64
2022/07/29 07:38:33;;;;;;;3.97;1.45;;;;;;;25.85;40.53;101687.91;5050868;28;20016;-63
2022/07/29 07:40:59;;;;;;;7.18;1.58;;;;;;;25.85;40.31;101688.78;5049892;28;20036;-64
2022/07/29 07:43:24;;;;;;;6.22;1.35;;;;;;;25.86;40.50;101686.94;5058898;28;20047;-65
2022/07/29 07:45:49;;;;;;;5.63;1.40;;;;;;;25.86;40.46;101681.59;5048136;28;20063;-65
2022/07/29 07:48:15;;;;;;;10.95;1.40;;;;;;;25.86;40.19;101678.94;5063332;28;20033;-65
2022/07/29 07:50:40;;;;;;;5.88;1.60;;;;;;;25.90;40.09;101677.91;5056707;28;20058;-65
2022/07/29 07:53:05;;;;;;;5.22;1.38;;;;;;;25.89;40.23;101680.63;5049120;28;20032;-65
2022/07/29 07:55:31;;;;;;;7.15;1.40;;;;;;;25.89;40.58;101677.97;5049510;28;20108;-65
2022/07/29 07:57:56;;;;;;;5.93;1.40;;;;;;;25.91;40.33;101678.78;5049050;28;20029;-65
2022/07/29 08:00:22;;;;;;;4.05;1.40;;;;;;;25.89;40.23;101672.63;5052767;28;20052;-65
2022/07/29 08:02:47;;;;;;;4.72;1.50;;;;;;;25.91;40.53;101673.44;5053327;28;20029;-65
2022/07/29 08:05:16;;;;;;;5.03;1.30;;;;;;;25.90;40.56;101669.03;5064769;28;20028;-65
2022/07/29 08:07:45;;;;;;;7.10;1.52;;;;;;;25.92;40.35;101668.06;5067193;28;20111;-65
2022/07/29 08:10:11;;;;;;;7.15;1.50;;;;;;;25.94;40.36;101665.28;5047913;28;20066;-65
2022/07/29 08:12:37;;;;;;;7.57;1.38;;;;;;;25.95;40.26;101661.69;5068003;28;20040;-67
2022/07/29 08:15:03;;;;;;;5.63;1.30;;;;;;;25.97;40.52;101659.84;5067870;28;20028;-67
2022/07/29 08:17:28;;;;;;;6.65;1.50;;;;;;;25.99;39.95;101663.31;5068647;28;20041;-67
2022/07/29 08:19:54;;;;;;;6.75;1.50;;;;;;;25.98;39.95;101661.59;5067754;28;20482;-67
2022/07/29 08:22:19;;;;;;;4.43;1.38;;;;;;;25.98;39.96;101661.59;5068543;28;20036;-68
2022/07/29 08:24:52;;;;;;;3.55;1.40;;;;;;;26.00;40.13;101665.06;5068815;28;20054;-67
2022/07/29 08:27:19;;;;;;;7.95;1.33;;;;;;;25.98;40.27;101662.47;5068807;28;20115;-67
2022/07/29 08:29:44;;;;;;;3.72;1.27;;;;;;;26.01;40.09;101667.69;5069231;28;20482;-68
2022/07/29 08:32:10;;;;;;;6.15;1.40;;;;;;;26.04;39.83;101656.91;5069088;28;20028;-67
2022/07/29 08:34:35;;;;;;;5.20;1.40;;;;;;;26.05;40.03;101663.09;5030464;28;20178;-67
2022/07/29 08:37:00;;;;;;;3.78;1.60;;;;;;;26.05;40.01;101663.09;5047783;28;20402;-67
2022/07/29 08:39:26;;;;;;;5.40;1.50;;;;;;;26.03;39.99;101663.16;5048618;28;20037;-67
2022/07/29 08:41:52;;;;;;;2.28;1.40;;;;;;;26.00;40.17;101657.91;5048970;28;20028;-68
2022/07/29 08:44:19;;;;;;;5.43;1.42;;;;;;;26.00;40.09;101663.25;5048173;28;20049;-68
2022/07/29 08:46:45;;;;;;;3.25;1.35;;;;;;;26.00;39.96;101668.59;5049103;28;20605;-68
2022/07/29 08:49:10;;;;;;;4.53;1.30;;;;;;;26.02;40.00;101668.56;5052041;28;20220;-67
2022/07/29 08:51:38;;;;;;;4.93;1.33;;;;;;;26.01;40.04;101662.34;5055266;28;20439;-67
2022/07/29 08:54:05;;;;;;;5.07;1.50;;;;;;;26.01;40.30;101667.69;5054897;28;20029;-68
2022/07/29 08:56:30;;;;;;;3.88;1.30;;;;;;;26.01;40.05;101658.78;5054175;28;20558;-67
2022/07/29 08:58:58;;;;;;;3.60;1.40;;;;;;;26.02;39.99;101652.53;5054693;28;20037;-69
2022/07/29 09:01:27;;;;;;;2.88;1.27;;;;;;;26.01;40.19;101650.78;5055590;28;20033;-67
2022/07/29 09:03:55;;;;;;;3.92;1.30;;;;;;;26.02;40.10;101658.75;5056381;28;20106;-67
2022/07/29 09:06:21;;;;;;;4.50;1.48;;;;;;;26.04;39.99;101654.22;5074158;28;20068;-67
2022/07/29 09:08:48;;;;;;;4.30;1.30;;;;;;;26.02;40.13;101649.84;5074671;28;20036;-68
2022/07/29 09:11:13;;;;;;;4.35;1.40;;;;;;;26.01;40.26;101650.78;5075263;28;20041;-67
2022/07/29 09:13:39;;;;;;;5.18;1.50;;;;;;;26.03;40.14;101644.47;5074861;28;20047;-67
2022/07/29 09:16:05;;;;;;;2.17;1.30;;;;;;;26.01;40.03;101640.97;5075118;28;20069;-67
2022/07/29 09:18:42;;;;;;;2.88;1.30;;;;;;;26.01;40.09;101642.75;5074817;28;20117;-67
2022/07/29 09:24:07;;;;;;;2.58;1.20;;;;;;;26.00;39.99;101649.03;5055099;28;20040;-67
2022/07/29 09:26:35;;;;;;;5.03;1.50;;;;;;;26.00;39.90;101655.25;5054686;28;20036;-67
2022/07/29 09:29:16;;;;;;;3.20;1.30;;;;;;;26.02;39.96;101639.16;5053782;28;20481;-67
2022/07/29 09:31:47;;;;;;;2.75;1.30;;;;;;;26.00;40.07;101651.69;5055037;28;20028;-67
2022/07/29 09:34:21;;;;;;;3.67;1.25;;;;;;;26.01;39.93;101654.31;5054305;28;20497;-67
2022/07/29 09:36:49;;;;;;;2.85;1.30;;;;;;;26.00;40.00;101649.03;5055239;28;20025;-68
2022/07/29 09:39:25;;;;;;;3.08;1.25;;;;;;;25.99;40.13;101657.97;5054611;28;20040;-68
2022/07/29 09:41:53;;;;;;;3.65;1.30;;;;;;;25.99;40.12;101658.84;5054755;28;20467;-67
2022/07/29 09:44:19;;;;;;;2.08;1.10;;;;;;;26.02;40.03;101658.75;5054593;28;20045;-68
2022/07/29 09:47:06;;;;;;;3.08;1.38;;;;;;;26.01;40.13;101657.00;5055164;28;20028;-67
2022/07/29 09:49:33;;;;;;;3.88;1.40;;;;;;;26.05;39.89;101650.59;5054091;28;20033;-67
2022/07/29 09:52:07;;;;;;;2.00;1.23;;;;;;;26.05;39.89;101644.38;5054509;28;20087;-67
2022/07/29 09:54:36;;;;;;;2.03;1.23;;;;;;;26.05;40.09;101639.03;5054545;28;20419;-67
2022/07/29 09:57:08;;;;;;;2.90;1.30;;;;;;;26.01;39.86;101638.28;5053227;28;20032;-68
2022/07/29 09:59:34;;;;;;;2.72;1.20;;;;;;;26.02;40.00;101637.38;5056550;28;20291;-67
2022/07/29 10:02:00;;;;;;;3.83;1.30;;;;;;;26.02;40.13;101636.50;5071104;28;20031;-67
2022/07/29 10:04:40;;;;;;;2.97;1.20;;;;;;;26.01;39.96;101638.28;5071289;28;20032;-68
2022/07/29 10:07:06;;;;;;;3.58;1.30;;;;;;;26.03;40.03;101647.13;5071490;28;20040;-68
2022/07/29 10:09:33;;;;;;;1.90;1.20;;;;;;;26.00;40.06;101654.38;5071677;28;20021;-67
2022/07/29 10:12:14;;;;;;;3.03;1.33;;;;;;;26.02;40.19;101665.88;5071079;28;20031;-68
2022/07/29 10:14:40;;;;;;;3.38;1.23;;;;;;;26.03;40.15;101675.66;5070632;28;20089;-67
2022/07/29 10:17:07;;;;;;;3.20;1.33;;;;;;;26.01;40.11;101681.03;5071215;28;20114;-67
2022/07/29 10:19:34;;;;;;;2.35;1.38;;;;;;;26.03;39.89;101686.34;5071424;28;20024;-68
2022/07/29 10:22:01;;;;;;;3.85;1.30;;;;;;;26.02;40.03;101674.78;5070235;28;20043;-67
2022/07/29 10:24:28;;;;;;;3.08;1.30;;;;;;;26.05;39.76;101673.78;5069583;28;20102;-68
2022/07/29 10:26:59;;;;;;;2.13;1.30;;;;;;;26.06;39.87;101670.16;5050865;28;20086;-68
2022/07/29 10:29:25;;;;;;;2.33;1.40;;;;;;;26.06;39.83;101664.84;5050715;28;20039;-68
2022/07/29 10:32:26;;;;;;;5.95;1.30;;;;;;;26.07;39.77;101663.91;5050727;28;20516;-68
2022/07/29 10:35:20;;;;;;;3.60;1.48;;;;;;;26.05;40.22;101655.06;5050921;28;20025;-68
2022/07/29 10:37:55;;;;;;;3.88;1.48;;;;;;;26.10;39.68;101656.66;5050638;28;20079;-69
2022/07/29 10:43:47;;;;;;;9.68;1.70;;;;;;;26.17;39.92;101658.13;5050607;28;20048;-68
2022/07/29 10:46:14;;;;;;;6.22;1.77;;;;;;;26.20;39.65;101650.00;5050656;28;20486;-67
2022/07/29 10:49:16;;;;;;;5.80;1.77;;;;;;;26.16;40.05;101650.19;5050789;28;20044;-69
2022/07/29 10:51:50;;;;;;;5.80;1.80;;;;;;;26.23;39.75;101644.56;5049857;28;20068;-67
2022/07/29 10:54:38;;;;;;;9.30;1.90;;;;;;;26.20;39.44;101642.00;5048968;28;20025;-68
2022/07/29 10:57:26;;;;;;;5.07;1.88;;;;;;;26.24;39.44;101646.31;5050359;28;20083;-67
2022/07/29 11:00:01;;;;;;;6.63;1.63;;;;;;;26.24;39.63;101645.44;5050730;28;20016;-67
2022/07/29 11:02:32;;;;;;;7.03;1.70;;;;;;;26.25;39.66;101640.03;5065664;28;20581;-67
2022/07/29 11:04:57;;;;;;;8.13;1.80;;;;;;;26.28;39.74;101644.41;5069758;28;20036;-67
2022/07/29 11:07:23;;;;;;;5.22;1.80;;;;;;;26.28;39.65;101644.41;5070238;28;20110;-68
2022/07/29 11:10:14;;;;;;;5.75;1.70;;;;;;;26.30;39.79;101649.66;5070762;28;20028;-67
2022/07/29 11:12:42;;;;;;;4.65;1.42;;;;;;;26.30;39.67;101650.53;5068117;28;20052;-67
2022/07/29 11:15:17;;;;;;;3.75;1.70;;;;;;;26.34;39.46;101648.63;5070077;28;20028;-67
2022/07/29 11:17:54;;;;;;;6.78;1.88;;;;;;;26.33;39.60;101652.25;5069669;28;20031;-69
2022/07/29 11:20:34;;;;;;;6.68;1.95;;;;;;;26.36;39.71;101649.44;5059834;28;20035;-67
2022/07/29 11:23:00;;;;;;;5.90;1.80;;;;;;;26.43;39.71;101651.81;5065981;28;20036;-67
2022/07/29 11:25:26;;;;;;;5.03;1.90;;;;;;;26.42;39.55;101649.19;5051289;28;20191;-67
2022/07/29 11:27:53;;;;;;;7.35;1.80;;;;;;;26.41;39.67;101650.97;5059914;28;20040;-67
2022/07/29 11:30:19;;;;;;;4.82;2.00;;;;;;;26.41;39.69;101650.13;5050860;28;20399;-68
2022/07/29 11:32:46;;;;;;;5.72;1.90;;;;;;;26.34;40.28;101652.19;5054714;28;20032;-62
2022/07/29 11:35:23;;;;;;;13.40;1.80;;;;;;;26.44;39.98;101645.53;5047357;28;20468;-64
2022/07/29 11:38:22;;;;;;;9.35;1.88;;;;;;;26.51;39.76;101651.50;5050207;28;20031;-65
2022/07/29 11:41:16;;;;;;;8.57;2.20;;;;;;;26.52;39.76;101654.13;5061018;28;21424;-65